createdAt,value
2022-09-27T00:00:47.916Z,11.4
2022-09-27T00:02:03.000Z,11.4
2022-09-27T00:03:19.000Z,11.4
2022-09-27T00:04:36.354Z,11.4
2022-09-27T00:05:52.000Z,11.4
2022-09-27T00:07:08.652Z,11.4
2022-09-27T00:08:24.000Z,11.4
2022-09-27T00:09:40.949Z,11.4
2022-09-27T00:10:56.000Z,11.4
2022-09-27T00:12:12.000Z,11.4
2022-09-27T00:13:28.000Z,11.4
2022-09-27T00:14:44.000Z,11.4
2022-09-27T00:16:00.000Z,11.4
2022-09-27T00:17:16.846Z,11.4
2022-09-27T00:18:32.000Z,11.4
2022-09-27T00:19:48.000Z,11.4
2022-09-27T00:21:05.000Z,11.4
2022-09-27T00:22:21.000Z,11.4
2022-09-27T00:23:37.000Z,11.4
2022-09-27T00:24:53.000Z,11.4
2022-09-27T00:26:09.000Z,11.4
2022-09-27T00:27:25.000Z,11.4
2022-09-27T00:28:40.000Z,11.4
2022-09-27T00:29:57.000Z,11.4
2022-09-27T00:31:13.000Z,11.4
2022-09-27T00:32:29.000Z,11.4
2022-09-27T00:33:45.000Z,11.4
2022-09-27T00:35:01.000Z,11.4
2022-09-27T00:36:18.062Z,11.4
2022-09-27T00:37:33.000Z,11.4
2022-09-27T00:38:50.353Z,11.5
2022-09-27T00:40:06.494Z,11.4
2022-09-27T00:41:22.000Z,11.4
2022-09-27T00:42:38.791Z,11.4
2022-09-27T00:43:54.000Z,11.4
2022-09-27T00:45:09.000Z,11.4
2022-09-27T00:46:26.000Z,11.4
2022-09-27T00:47:42.000Z,11.4
2022-09-27T00:48:58.000Z,11.4
2022-09-27T00:50:14.000Z,11.4
2022-09-27T00:51:30.000Z,11.4
2022-09-27T00:52:46.983Z,11.4
2022-09-27T00:54:02.000Z,11.4
2022-09-27T00:55:19.000Z,11.5
2022-09-27T00:56:35.000Z,11.5
2022-09-27T00:57:51.000Z,11.5
2022-09-27T00:59:07.718Z,11.5
2022-09-27T01:00:23.000Z,11.5
2022-09-27T01:01:39.032Z,11.5
2022-09-27T01:02:54.000Z,11.5
2022-09-27T01:04:11.322Z,11.5
2022-09-27T01:05:27.000Z,11.5
2022-09-27T01:06:43.000Z,11.5
2022-09-27T01:07:59.000Z,11.5
2022-09-27T01:09:15.000Z,11.5
2022-09-27T01:10:31.000Z,11.5
2022-09-27T01:11:47.000Z,11.5
2022-09-27T01:13:04.000Z,11.5
2022-09-27T01:14:20.492Z,11.5
2022-09-27T01:15:36.000Z,11.4
2022-09-27T01:16:52.000Z,11.4
2022-09-27T01:18:07.000Z,11.4
2022-09-27T01:19:23.000Z,11.4
2022-09-27T01:20:40.000Z,11.4
2022-09-27T01:21:56.394Z,11.4
2022-09-27T01:23:12.000Z,11.4
2022-09-27T01:24:28.000Z,11.4
2022-09-27T01:25:44.000Z,11.4
2022-09-27T01:27:00.000Z,11.4
2022-09-27T01:28:16.000Z,11.4
2022-09-27T01:29:33.000Z,11.4
2022-09-27T01:30:49.000Z,11.4
2022-09-27T01:32:05.000Z,11.4
2022-09-27T01:33:21.000Z,11.4
2022-09-27T01:34:36.881Z,11.4
2022-09-27T01:35:53.022Z,11.4
2022-09-27T01:37:08.000Z,11.4
2022-09-27T01:38:25.319Z,11.4
2022-09-27T01:39:41.000Z,11.4
2022-09-27T01:40:57.000Z,11.4
2022-09-27T01:42:13.000Z,11.4
2022-09-27T01:43:29.904Z,11.4
2022-09-27T01:44:45.000Z,11.4
2022-09-27T01:46:01.000Z,11.4
2022-09-27T01:47:18.000Z,11.4
2022-09-27T01:48:34.000Z,11.4
2022-09-27T01:49:50.000Z,11.4
2022-09-27T01:51:05.000Z,11.4
2022-09-27T01:52:21.948Z,11.4
2022-09-27T01:53:37.000Z,11.4
2022-09-27T01:54:54.000Z,11.4
2022-09-27T01:56:10.000Z,11.4
2022-09-27T01:57:26.000Z,11.4
2022-09-27T01:58:41.705Z,11.4
2022-09-27T01:59:57.000Z,11.4
2022-09-27T02:01:13.000Z,11.4
2022-09-27T02:02:29.000Z,11.4
2022-09-27T02:03:46.000Z,11.4
2022-09-27T02:05:02.000Z,11.4
2022-09-27T02:06:18.588Z,11.4
2022-09-27T02:07:34.000Z,11.4
2022-09-27T02:08:50.000Z,11.4
2022-09-27T02:10:06.000Z,11.4
2022-09-27T02:11:22.000Z,11.4
2022-09-27T02:12:39.000Z,11.4
2022-09-27T02:13:55.000Z,11.4
2022-09-27T02:15:10.000Z,11.4
2022-09-27T02:16:26.000Z,11.4
2022-09-27T02:17:42.918Z,11.4
2022-09-27T02:18:58.000Z,11.4
2022-09-27T02:20:14.988Z,11.4
2022-09-27T02:21:31.360Z,11.4
2022-09-27T02:22:47.000Z,11.4
2022-09-27T02:24:03.000Z,11.4
2022-09-27T02:25:19.800Z,11.4
2022-09-27T02:26:35.000Z,11.4
2022-09-27T02:27:52.108Z,11.4
2022-09-27T02:29:08.241Z,11.4
2022-09-27T02:30:24.000Z,11.4
2022-09-27T02:31:39.000Z,11.4
2022-09-27T02:32:55.000Z,11.4
2022-09-27T02:34:11.000Z,11.4
2022-09-27T02:35:27.000Z,11.4
2022-09-27T02:36:44.141Z,11.4
2022-09-27T02:38:00.000Z,11.4
2022-09-27T02:39:16.000Z,11.4
2022-09-27T02:40:32.000Z,11.4
2022-09-27T02:41:48.000Z,11.4
2022-09-27T02:43:04.000Z,11.4
2022-09-27T02:44:21.022Z,11.4
2022-09-27T02:45:37.168Z,11.3
2022-09-27T02:46:53.000Z,11.4
2022-09-27T02:48:08.474Z,11.4
2022-09-27T02:49:24.000Z,11.4
2022-09-27T02:50:40.000Z,11.4
2022-09-27T02:51:56.000Z,11.3
2022-09-27T02:53:13.057Z,11.4
2022-09-27T02:54:28.000Z,11.4
2022-09-27T02:55:45.000Z,11.4
2022-09-27T02:57:01.489Z,11.4
2022-09-27T02:58:17.000Z,11.4
2022-09-27T02:59:33.000Z,11.4
2022-09-27T03:00:49.000Z,11.4
2022-09-27T03:02:05.000Z,11.4
2022-09-27T03:03:22.218Z,11.4
2022-09-27T03:04:37.000Z,11.4
2022-09-27T03:05:53.000Z,11.4
2022-09-27T03:07:09.000Z,11.4
2022-09-27T03:08:25.000Z,11.4
2022-09-27T03:09:41.000Z,11.4
2022-09-27T03:10:58.106Z,11.4
2022-09-27T03:12:14.250Z,11.4
2022-09-27T03:13:30.396Z,11.4
2022-09-27T03:14:46.000Z,11.4
2022-09-27T03:16:02.000Z,11.4
2022-09-27T03:17:18.000Z,11.4
2022-09-27T03:18:34.980Z,11.4
2022-09-27T03:19:50.000Z,11.4
2022-09-27T03:21:06.000Z,11.4
2022-09-27T03:22:22.432Z,11.4
2022-09-27T03:23:38.000Z,11.4
2022-09-27T03:24:54.000Z,11.4
2022-09-27T03:26:10.000Z,11.4
2022-09-27T03:27:26.000Z,11.4
2022-09-27T03:28:42.000Z,11.4
2022-09-27T03:29:59.000Z,11.4
2022-09-27T03:31:15.000Z,11.4
2022-09-27T03:32:31.000Z,11.3
2022-09-27T03:33:47.000Z,11.3
2022-09-27T03:35:03.000Z,11.3
2022-09-27T03:36:19.000Z,11.3
2022-09-27T03:37:34.000Z,11.3
2022-09-27T03:38:51.340Z,11.3
2022-09-27T03:40:07.000Z,11.3
2022-09-27T03:41:23.000Z,11.3
2022-09-27T03:42:39.776Z,11.3
2022-09-27T03:43:55.000Z,11.3
2022-09-27T03:45:11.000Z,11.3
2022-09-27T03:46:27.000Z,11.3
2022-09-27T03:47:44.361Z,11.3
2022-09-27T03:49:00.506Z,11.3
2022-09-27T03:50:16.653Z,11.3
2022-09-27T03:51:32.000Z,11.3
2022-09-27T03:52:48.000Z,11.3
2022-09-27T03:54:03.000Z,11.3
2022-09-27T03:55:20.000Z,11.3
2022-09-27T03:56:36.000Z,11.3
2022-09-27T03:57:52.000Z,11.2
2022-09-27T03:59:08.000Z,11.2
2022-09-27T04:00:24.828Z,11.2
2022-09-27T04:01:40.000Z,11.2
2022-09-27T04:02:56.000Z,11.2
2022-09-27T04:04:13.000Z,11.2
2022-09-27T04:05:29.000Z,11.2
2022-09-27T04:06:45.000Z,11.2
2022-09-27T04:08:01.000Z,11.2
2022-09-27T04:09:17.846Z,11.2
2022-09-27T04:10:32.000Z,11.2
2022-09-27T04:11:48.000Z,11.2
2022-09-27T04:13:05.000Z,11.2
2022-09-27T04:14:21.000Z,11.2
2022-09-27T04:15:37.587Z,11.2
2022-09-27T04:16:53.000Z,11.2
2022-09-27T04:18:09.000Z,11.2
2022-09-27T04:19:25.000Z,11.2
2022-09-27T04:20:41.000Z,11.2
2022-09-27T04:21:58.000Z,11.2
2022-09-27T04:23:14.000Z,11.2
2022-09-27T04:24:30.000Z,11.2
2022-09-27T04:25:46.000Z,11.2
2022-09-27T04:27:01.909Z,11.2
2022-09-27T04:28:17.000Z,11.2
2022-09-27T04:29:33.000Z,11.2
2022-09-27T04:30:50.000Z,11.2
2022-09-27T04:32:06.495Z,11.2
2022-09-27T04:33:22.000Z,11.2
2022-09-27T04:34:38.000Z,11.2
2022-09-27T04:35:54.000Z,11.2
2022-09-27T04:37:10.000Z,11.2
2022-09-27T04:38:27.226Z,11.2
2022-09-27T04:39:43.364Z,11.2
2022-09-27T04:40:59.513Z,11.2
2022-09-27T04:42:15.662Z,11.2
2022-09-27T04:43:30.000Z,11.1
2022-09-27T04:44:46.000Z,11.1
2022-09-27T04:47:19.000Z,11.1
2022-09-27T04:48:35.000Z,11.1
2022-09-27T04:49:51.548Z,11.1
2022-09-27T04:51:07.000Z,11.1
2022-09-27T04:52:23.000Z,11.1
2022-09-27T04:53:39.000Z,11.1
2022-09-27T04:54:55.000Z,11.1
2022-09-27T04:56:12.273Z,11.1
2022-09-27T04:57:28.000Z,11.1
2022-09-27T04:58:44.000Z,11.1
2022-09-27T04:59:59.000Z,11.1
2022-09-27T05:01:15.867Z,11.1
2022-09-27T05:02:31.000Z,11.1
2022-09-27T05:03:48.174Z,11.1
2022-09-27T05:05:04.000Z,11.1
2022-09-27T05:06:20.000Z,11.1
2022-09-27T05:07:36.000Z,11.1
2022-09-27T05:08:52.000Z,11.1
2022-09-27T05:10:08.000Z,11.1
2022-09-27T05:11:24.000Z,11
2022-09-27T05:12:41.198Z,11
2022-09-27T05:13:57.000Z,11
2022-09-27T05:15:13.000Z,11
2022-09-27T05:16:28.632Z,11
2022-09-27T05:17:44.000Z,11
2022-09-27T05:19:00.000Z,11
2022-09-27T05:20:16.000Z,10.9
2022-09-27T05:21:33.216Z,10.9
2022-09-27T05:22:49.000Z,10.9
2022-09-27T05:24:05.000Z,10.9
2022-09-27T05:25:21.646Z,10.9
2022-09-27T05:26:37.000Z,10.9
2022-09-27T05:27:53.000Z,10.8
2022-09-27T05:29:09.000Z,10.8
2022-09-27T05:30:26.000Z,10.8
2022-09-27T05:31:42.000Z,10.8
2022-09-27T05:32:57.537Z,10.8
2022-09-27T05:34:13.000Z,10.7
2022-09-27T05:35:29.000Z,10.7
2022-09-27T05:36:45.000Z,10.7
2022-09-27T05:38:01.000Z,10.7
2022-09-27T05:39:18.000Z,10.7
2022-09-27T05:40:34.000Z,10.7
2022-09-27T05:41:50.549Z,10.7
2022-09-27T05:43:06.707Z,10.7
2022-09-27T05:44:22.000Z,10.7
2022-09-27T05:45:38.000Z,10.7
2022-09-27T05:46:55.135Z,10.7
2022-09-27T05:48:11.000Z,10.6
2022-09-27T05:49:26.000Z,10.6
2022-09-27T05:50:42.583Z,10.6
2022-09-27T05:51:58.000Z,10.6
2022-09-27T05:53:14.000Z,10.6
2022-09-27T05:54:30.000Z,10.6
2022-09-27T05:55:46.000Z,10.5
2022-09-27T05:57:03.000Z,10.5
2022-09-27T05:58:19.000Z,10.5
2022-09-27T05:59:35.000Z,10.4
2022-09-27T06:00:51.000Z,10.4
2022-09-27T06:02:07.000Z,10.4
2022-09-27T06:03:23.000Z,10.4
2022-09-27T06:04:40.187Z,10.4
2022-09-27T06:05:55.000Z,10.4
2022-09-27T06:07:11.488Z,10.3
2022-09-27T06:08:27.000Z,10.3
2022-09-27T06:09:43.789Z,10.3
2022-09-27T06:10:59.000Z,10.3
2022-09-27T06:12:15.000Z,10.2
2022-09-27T06:13:31.000Z,10.2
2022-09-27T06:14:47.000Z,10.2
2022-09-27T06:16:03.000Z,10.2
2022-09-27T06:17:19.000Z,10.2
2022-09-27T06:18:35.000Z,10.2
2022-09-27T06:19:51.000Z,10.2
2022-09-27T06:21:08.112Z,10.2
2022-09-27T06:22:24.000Z,10.2
2022-09-27T06:23:40.000Z,10.2
2022-09-27T06:24:56.000Z,10.3
2022-09-27T06:26:12.695Z,10.3
2022-09-27T06:27:28.000Z,10.3
2022-09-27T06:28:44.995Z,10.3
2022-09-27T06:29:59.000Z,10.3
2022-09-27T06:31:16.000Z,10.3
2022-09-27T06:32:32.000Z,10.3
2022-09-27T06:33:48.000Z,10.3
2022-09-27T06:35:04.000Z,10.3
2022-09-27T06:36:20.000Z,10.3
2022-09-27T06:37:36.000Z,10.3
2022-09-27T06:38:53.182Z,10.3
2022-09-27T06:40:09.313Z,10.3
2022-09-27T06:41:25.457Z,10.4
2022-09-27T06:42:41.000Z,10.4
2022-09-27T06:43:57.000Z,10.4
2022-09-27T06:45:13.000Z,10.4
2022-09-27T06:46:28.000Z,10.4
2022-09-27T06:47:44.000Z,10.4
2022-09-27T06:49:01.000Z,10.4
2022-09-27T06:50:17.000Z,10.4
2022-09-27T06:51:33.000Z,10.4
2022-09-27T06:52:49.000Z,10.4
2022-09-27T06:54:05.000Z,10.4
2022-09-27T06:55:21.000Z,10.4
2022-09-27T06:56:37.000Z,10.4
2022-09-27T06:57:54.000Z,10.4
2022-09-27T06:59:10.508Z,10.4
2022-09-27T07:00:26.000Z,10.4
2022-09-27T07:01:42.000Z,10.4
2022-09-27T07:02:57.000Z,10.4
2022-09-27T07:04:14.111Z,10.4
2022-09-27T07:05:30.000Z,10.4
2022-09-27T07:06:46.399Z,10.4
2022-09-27T07:08:02.000Z,10.4
2022-09-27T07:09:18.000Z,10.4
2022-09-27T07:10:34.000Z,10.4
2022-09-27T07:11:50.000Z,10.4
2022-09-27T07:13:07.127Z,10.4
2022-09-27T07:14:23.272Z,10.5
2022-09-27T07:15:39.000Z,10.5
2022-09-27T07:16:55.000Z,10.5
2022-09-27T07:18:11.000Z,10.5
2022-09-27T07:19:26.000Z,10.5
2022-09-27T07:20:42.000Z,10.5
2022-09-27T07:21:59.161Z,10.5
2022-09-27T07:23:15.000Z,10.5
2022-09-27T07:24:31.455Z,10.6
2022-09-27T07:25:47.604Z,10.6
2022-09-27T07:27:03.000Z,10.6
2022-09-27T07:28:19.000Z,10.6
2022-09-27T07:29:35.000Z,10.7
2022-09-27T07:30:51.000Z,10.7
2022-09-27T07:32:08.000Z,10.7
2022-09-27T07:33:24.000Z,10.7
2022-09-27T07:34:40.616Z,10.7
2022-09-27T07:35:55.000Z,10.8
2022-09-27T07:37:11.000Z,10.8
2022-09-27T07:38:28.068Z,10.8
2022-09-27T07:39:44.221Z,10.8
2022-09-27T07:41:00.000Z,10.8
2022-09-27T07:42:16.534Z,10.9
2022-09-27T07:43:32.000Z,10.9
2022-09-27T07:44:48.792Z,10.8
2022-09-27T07:46:04.000Z,10.8
2022-09-27T07:47:21.094Z,10.8
2022-09-27T07:48:37.000Z,10.8
2022-09-27T07:49:53.000Z,10.8
2022-09-27T07:51:09.000Z,10.8
2022-09-27T07:52:24.000Z,10.8
2022-09-27T07:53:40.000Z,10.8
2022-09-27T07:54:56.973Z,10.9
2022-09-27T07:56:13.127Z,10.9
2022-09-27T07:57:29.274Z,10.9
2022-09-27T07:58:45.414Z,10.9
2022-09-27T08:00:01.000Z,10.9
2022-09-27T08:01:17.000Z,10.9
2022-09-27T08:02:33.000Z,10.9
2022-09-27T08:03:49.000Z,10.9
2022-09-27T08:05:05.000Z,10.9
2022-09-27T08:06:22.000Z,10.9
2022-09-27T08:07:38.439Z,10.9
2022-09-27T08:08:53.000Z,10.9
2022-09-27T08:10:09.000Z,10.9
2022-09-27T08:11:25.000Z,10.9
2022-09-27T08:12:41.000Z,10.9
2022-09-27T08:13:58.178Z,11
2022-09-27T08:15:14.320Z,11
2022-09-27T08:16:30.000Z,11
2022-09-27T08:17:46.000Z,11
2022-09-27T08:19:02.000Z,11
2022-09-27T08:20:18.000Z,11
2022-09-27T08:21:35.047Z,11
2022-09-27T08:22:51.192Z,11
2022-09-27T08:24:07.000Z,11.1
2022-09-27T08:25:22.500Z,11.1
2022-09-27T08:26:38.000Z,11.1
2022-09-27T08:27:54.000Z,11.1
2022-09-27T08:29:10.940Z,11.1
2022-09-27T08:30:26.000Z,11.2
2022-09-27T08:31:43.233Z,11.2
2022-09-27T08:32:59.000Z,11.2
2022-09-27T08:34:15.526Z,11.3
2022-09-27T08:35:31.000Z,11.3
2022-09-27T08:36:47.000Z,11.3
2022-09-27T08:38:03.000Z,11.4
2022-09-27T08:39:20.101Z,11.4
2022-09-27T08:40:36.000Z,11.4
2022-09-27T08:41:51.407Z,11.5
2022-09-27T08:43:07.000Z,11.5
2022-09-27T08:44:23.000Z,11.5
2022-09-27T08:45:39.000Z,11.6
2022-09-27T08:46:55.000Z,11.6
2022-09-27T08:48:12.140Z,11.6
2022-09-27T08:49:28.000Z,11.6
2022-09-27T08:50:44.000Z,11.7
2022-09-27T08:52:00.000Z,11.7
2022-09-27T08:53:16.000Z,11.7
2022-09-27T08:54:32.867Z,11.7
2022-09-27T08:55:48.000Z,11.8
2022-09-27T08:57:04.000Z,11.8
2022-09-27T08:58:20.312Z,11.8
2022-09-27T08:59:36.000Z,11.9
2022-09-27T09:00:52.000Z,11.9
2022-09-27T09:02:08.751Z,11.9
2022-09-27T09:03:24.897Z,12
2022-09-27T09:04:40.000Z,12
2022-09-27T09:05:56.000Z,12
2022-09-27T09:07:13.000Z,12.1
2022-09-27T09:08:29.000Z,12.1
2022-09-27T09:09:45.000Z,12.2
2022-09-27T09:11:01.000Z,12.2
2022-09-27T09:12:17.912Z,12.2
2022-09-27T09:13:33.000Z,12.3
2022-09-27T09:14:48.000Z,12.4
2022-09-27T09:16:05.000Z,12.4
2022-09-27T09:17:21.000Z,12.5
2022-09-27T09:18:37.000Z,12.5
2022-09-27T09:19:53.000Z,12.6
2022-09-27T09:21:09.000Z,12.7
2022-09-27T09:22:25.000Z,12.7
2022-09-27T09:23:42.000Z,12.8
2022-09-27T09:24:58.000Z,12.9
2022-09-27T09:26:14.000Z,13
2022-09-27T09:27:30.676Z,13.1
2022-09-27T09:28:46.000Z,13.2
2022-09-27T09:30:02.963Z,13.2
2022-09-27T09:31:18.124Z,13.3
2022-09-27T09:32:34.000Z,13.4
2022-09-27T09:33:50.000Z,13.5
2022-09-27T09:35:06.000Z,13.6
2022-09-27T09:36:22.000Z,13.6
2022-09-27T09:37:38.851Z,13.7
2022-09-27T09:38:54.998Z,13.8
2022-09-27T09:40:10.000Z,13.9
2022-09-27T09:41:27.000Z,13.9
2022-09-27T09:42:43.438Z,14
2022-09-27T09:43:59.000Z,14
2022-09-27T09:45:15.000Z,14.1
2022-09-27T09:46:31.000Z,14.1
2022-09-27T09:47:46.000Z,14.2
2022-09-27T09:49:02.000Z,14.2
2022-09-27T09:50:19.337Z,14.3
2022-09-27T09:51:35.000Z,14.3
2022-09-27T09:52:51.000Z,14.4
2022-09-27T09:54:07.000Z,14.4
2022-09-27T09:55:23.000Z,14.4
2022-09-27T09:56:39.000Z,14.5
2022-09-27T09:57:55.000Z,14.5
2022-09-27T09:59:12.000Z,14.5
2022-09-27T10:00:28.486Z,14.5
2022-09-27T10:01:44.000Z,14.5
2022-09-27T10:03:00.000Z,14.5
2022-09-27T10:04:15.000Z,14.5
2022-09-27T10:05:31.000Z,14.5
2022-09-27T10:06:48.000Z,14.5
2022-09-27T10:08:04.000Z,14.5
2022-09-27T10:09:20.000Z,14.5
2022-09-27T10:10:36.000Z,14.4
2022-09-27T10:11:52.000Z,14.4
2022-09-27T10:13:08.000Z,14.3
2022-09-27T10:14:24.000Z,14.3
2022-09-27T10:15:41.000Z,14.3
2022-09-27T10:16:57.000Z,14.2
2022-09-27T10:18:13.000Z,14.2
2022-09-27T10:19:29.000Z,14.1
2022-09-27T10:20:44.000Z,14.1
2022-09-27T10:22:01.000Z,14.1
2022-09-27T10:23:16.000Z,14.1
2022-09-27T10:24:33.000Z,14.1
2022-09-27T10:25:49.000Z,14.1
2022-09-27T10:27:05.000Z,14.1
2022-09-27T10:28:20.000Z,14.1
2022-09-27T10:29:36.898Z,14.1
2022-09-27T10:30:53.043Z,14.1
2022-09-27T10:32:08.000Z,14.1
2022-09-27T10:33:25.329Z,14.1
2022-09-27T10:34:41.000Z,14.1
2022-09-27T10:35:57.000Z,14.1
2022-09-27T10:37:13.769Z,14
2022-09-27T10:38:29.000Z,14
2022-09-27T10:39:45.000Z,13.9
2022-09-27T10:41:01.000Z,13.9
2022-09-27T10:42:18.352Z,13.9
2022-09-27T10:43:34.000Z,13.8
2022-09-27T10:44:49.672Z,13.8
2022-09-27T10:46:05.821Z,13.8
2022-09-27T10:47:21.000Z,13.8
2022-09-27T10:48:37.000Z,13.7
2022-09-27T10:49:54.246Z,13.7
2022-09-27T10:51:10.000Z,13.7
2022-09-27T10:52:26.000Z,13.7
2022-09-27T10:53:42.686Z,13.7
2022-09-27T10:54:58.831Z,13.7
2022-09-27T10:56:14.000Z,13.7
2022-09-27T10:57:30.000Z,13.8
2022-09-27T10:58:47.000Z,13.8
2022-09-27T11:00:03.000Z,13.8
2022-09-27T11:01:18.579Z,13.9
2022-09-27T11:02:34.000Z,13.8
2022-09-27T11:03:50.000Z,13.8
2022-09-27T11:05:06.000Z,13.8
2022-09-27T11:06:22.000Z,13.9
2022-09-27T11:07:39.000Z,13.9
2022-09-27T11:08:55.449Z,13.8
2022-09-27T11:10:11.000Z,13.8
2022-09-27T11:11:27.000Z,13.8
2022-09-27T11:12:43.902Z,13.8
2022-09-27T11:13:59.000Z,13.8
2022-09-27T11:15:15.000Z,13.8
2022-09-27T11:16:32.000Z,13.9
2022-09-27T11:17:47.000Z,13.9
2022-09-27T11:19:03.627Z,13.9
2022-09-27T11:20:19.000Z,13.9
2022-09-27T11:21:35.000Z,13.9
2022-09-27T11:22:51.000Z,13.9
2022-09-27T11:24:07.000Z,13.9
2022-09-27T11:25:24.355Z,13.9
2022-09-27T11:26:40.000Z,13.9
2022-09-27T11:27:56.000Z,13.9
2022-09-27T11:29:12.000Z,13.9
2022-09-27T11:30:28.940Z,13.9
2022-09-27T11:31:44.000Z,14
2022-09-27T11:33:00.000Z,14
2022-09-27T11:34:16.386Z,14
2022-09-27T11:35:32.545Z,14
2022-09-27T11:36:48.000Z,14.1
2022-09-27T11:38:04.000Z,14.1
2022-09-27T11:39:20.972Z,14.1
2022-09-27T11:40:37.127Z,14.2
2022-09-27T11:41:53.000Z,14.2
2022-09-27T11:43:09.000Z,14.2
2022-09-27T11:44:25.000Z,14.3
2022-09-27T11:45:41.702Z,14.4
2022-09-27T11:46:57.000Z,14.4
2022-09-27T11:48:13.000Z,14.5
2022-09-27T11:49:29.000Z,14.5
2022-09-27T11:50:45.000Z,14.6
2022-09-27T11:52:01.000Z,14.6
2022-09-27T11:53:17.000Z,14.5
2022-09-27T11:54:33.737Z,14.5
2022-09-27T11:55:49.000Z,14.5
2022-09-27T11:57:05.000Z,14.6
2022-09-27T11:58:21.000Z,14.6
2022-09-27T11:59:38.000Z,14.6
2022-09-27T12:00:54.000Z,14.6
2022-09-27T12:02:10.000Z,14.6
2022-09-27T12:03:26.000Z,14.7
2022-09-27T12:04:42.000Z,14.7
2022-09-27T12:05:58.000Z,14.7
2022-09-27T12:07:13.000Z,14.7
2022-09-27T12:08:30.000Z,14.7
2022-09-27T12:09:46.497Z,14.7
2022-09-27T12:11:02.000Z,14.7
2022-09-27T12:12:18.000Z,14.7
2022-09-27T12:13:34.000Z,14.7
2022-09-27T12:14:51.092Z,14.7
2022-09-27T12:16:06.000Z,14.7
2022-09-27T12:17:23.000Z,14.7
2022-09-27T12:18:39.000Z,14.7
2022-09-27T12:19:55.000Z,14.7
2022-09-27T12:21:11.821Z,14.7
2022-09-27T12:22:27.000Z,14.7
2022-09-27T12:23:42.000Z,14.7
2022-09-27T12:24:59.000Z,14.7
2022-09-27T12:26:15.000Z,14.6
2022-09-27T12:27:31.000Z,14.6
2022-09-27T12:28:47.709Z,14.6
2022-09-27T12:30:03.855Z,14.6
2022-09-27T12:31:20.012Z,14.6
2022-09-27T12:32:35.000Z,14.6
2022-09-27T12:33:52.000Z,14.6
2022-09-27T12:35:08.000Z,14.6
2022-09-27T12:36:24.000Z,14.6
2022-09-27T12:37:40.000Z,14.6
2022-09-27T12:38:56.881Z,14.6
2022-09-27T12:40:12.054Z,14.6
2022-09-27T12:41:27.000Z,14.7
2022-09-27T12:42:44.340Z,14.7
2022-09-27T12:44:00.000Z,14.7
2022-09-27T12:45:16.000Z,14.7
2022-09-27T12:46:32.000Z,14.7
2022-09-27T12:47:48.935Z,14.7
2022-09-27T12:49:04.000Z,14.6
2022-09-27T12:50:20.000Z,14.5
2022-09-27T12:51:37.000Z,14.5
2022-09-27T12:52:53.518Z,14.5
2022-09-27T12:54:09.000Z,14.4
2022-09-27T12:55:25.822Z,14.4
2022-09-27T12:56:40.000Z,14.4
2022-09-27T12:57:56.000Z,14.4
2022-09-27T12:59:13.000Z,14.3
2022-09-27T13:00:29.000Z,14.3
2022-09-27T13:01:45.000Z,14.3
2022-09-27T13:03:01.000Z,14.2
2022-09-27T13:04:17.855Z,14.2
2022-09-27T13:05:33.995Z,14.1
2022-09-27T13:06:49.000Z,14
2022-09-27T13:08:06.000Z,14
2022-09-27T13:09:22.000Z,13.9
2022-09-27T13:10:38.000Z,13.9
2022-09-27T13:11:54.731Z,13.8
2022-09-27T13:13:09.000Z,13.7
2022-09-27T13:14:26.039Z,13.7
2022-09-27T13:15:41.000Z,13.6
2022-09-27T13:16:58.000Z,13.5
2022-09-27T13:18:14.481Z,13.4
2022-09-27T13:19:30.000Z,13.3
2022-09-27T13:20:46.000Z,13.2
2022-09-27T13:22:02.936Z,13.1
2022-09-27T13:23:18.000Z,13
2022-09-27T13:24:34.000Z,12.9
2022-09-27T13:25:51.000Z,12.9
2022-09-27T13:27:07.000Z,12.8
2022-09-27T13:28:23.000Z,12.7
2022-09-27T13:29:38.000Z,12.7
2022-09-27T13:30:54.000Z,12.7
2022-09-27T13:32:10.000Z,12.6
2022-09-27T13:33:27.000Z,12.6
2022-09-27T13:34:43.000Z,12.6
2022-09-27T13:35:59.549Z,12.7
2022-09-27T13:37:15.000Z,12.8
2022-09-27T13:38:31.000Z,12.8
2022-09-27T13:39:47.990Z,12.8
2022-09-27T13:41:03.000Z,12.8
2022-09-27T13:42:20.000Z,12.8
2022-09-27T13:43:36.432Z,12.8
2022-09-27T13:44:52.000Z,12.8
2022-09-27T13:46:07.740Z,12.8
2022-09-27T13:47:23.000Z,12.8
2022-09-27T13:48:39.000Z,12.8
2022-09-27T13:49:55.000Z,12.8
2022-09-27T13:51:12.332Z,12.9
2022-09-27T13:52:28.000Z,12.9
2022-09-27T13:53:44.621Z,13
2022-09-27T13:55:00.000Z,13.1
2022-09-27T13:56:16.000Z,13.2
2022-09-27T13:57:33.061Z,13.3
2022-09-27T13:58:48.000Z,13.4
2022-09-27T14:00:05.000Z,13.5
2022-09-27T14:01:21.000Z,13.6
2022-09-27T14:02:36.000Z,13.6
2022-09-27T14:03:52.000Z,13.7
2022-09-27T14:05:08.000Z,13.7
2022-09-27T14:06:24.000Z,13.7
2022-09-27T14:07:41.000Z,13.8
2022-09-27T14:08:57.000Z,13.8
2022-09-27T14:10:13.000Z,13.8
2022-09-27T14:11:29.000Z,13.8
2022-09-27T14:12:45.843Z,13.8
2022-09-27T14:14:01.990Z,13.7
2022-09-27T14:15:17.000Z,13.7
2022-09-27T14:16:34.000Z,13.6
2022-09-27T14:17:50.000Z,13.5
2022-09-27T14:19:05.592Z,13.4
2022-09-27T14:20:21.000Z,13.4
2022-09-27T14:21:37.000Z,13.3
2022-09-27T14:22:54.033Z,13.3
2022-09-27T14:24:09.000Z,13.3
2022-09-27T14:25:26.000Z,13.4
2022-09-27T14:26:42.470Z,13.4
2022-09-27T14:27:58.000Z,13.4
2022-09-27T14:29:14.780Z,13.4
2022-09-27T14:30:30.912Z,13.3
2022-09-27T14:31:47.067Z,13.3
2022-09-27T14:33:02.000Z,13.3
2022-09-27T14:34:19.000Z,13.2
2022-09-27T14:35:34.526Z,13.2
2022-09-27T14:36:50.000Z,13.2
2022-09-27T14:38:06.813Z,13.2
2022-09-27T14:39:22.000Z,13.2
2022-09-27T14:40:38.000Z,13.2
2022-09-27T14:41:55.255Z,13.2
2022-09-27T14:43:10.000Z,13.2
2022-09-27T14:44:26.000Z,13.2
2022-09-27T14:45:42.000Z,13.1
2022-09-27T14:46:58.000Z,13.1
2022-09-27T14:48:14.000Z,13.1
2022-09-27T14:49:31.165Z,13.1
2022-09-27T14:50:47.000Z,13.1
2022-09-27T14:52:03.000Z,13
2022-09-27T14:53:19.000Z,13
2022-09-27T14:54:35.000Z,13
2022-09-27T14:55:51.000Z,12.9
2022-09-27T14:57:08.039Z,12.9
2022-09-27T14:58:24.194Z,12.9
2022-09-27T14:59:39.000Z,12.9
2022-09-27T15:00:55.000Z,12.9
2022-09-27T15:02:11.641Z,12.8
2022-09-27T15:03:27.000Z,12.8
2022-09-27T15:04:43.000Z,12.8
2022-09-27T15:05:59.000Z,12.8
2022-09-27T15:07:16.000Z,12.8
2022-09-27T15:08:32.000Z,12.8
2022-09-27T15:09:48.000Z,12.8
2022-09-27T15:11:04.000Z,12.8
2022-09-27T15:12:20.000Z,12.8
2022-09-27T15:13:36.000Z,12.8
2022-09-27T15:14:53.108Z,12.8
2022-09-27T15:16:08.000Z,12.8
2022-09-27T15:17:24.422Z,12.8
2022-09-27T15:18:40.000Z,12.8
2022-09-27T15:19:56.000Z,12.8
2022-09-27T15:21:12.878Z,12.7
2022-09-27T15:22:29.019Z,12.7
2022-09-27T15:23:45.151Z,12.7
2022-09-27T15:25:01.000Z,12.7
2022-09-27T15:26:17.450Z,12.7
2022-09-27T15:27:33.000Z,12.7
2022-09-27T15:28:49.000Z,12.6
2022-09-27T15:30:05.000Z,12.6
2022-09-27T15:31:21.000Z,12.6
2022-09-27T15:32:36.000Z,12.6
2022-09-27T15:33:53.000Z,12.5
2022-09-27T15:35:09.000Z,12.5
2022-09-27T15:36:25.000Z,12.5
2022-09-27T15:40:14.081Z,12.5
2022-09-27T15:41:30.000Z,12.4
2022-09-27T15:42:46.000Z,12.4
2022-09-27T15:44:02.000Z,12.4
2022-09-27T15:45:27.984Z,12.4
2022-09-27T15:46:34.000Z,12.4
2022-09-27T15:47:50.962Z,12.4
2022-09-27T15:49:05.000Z,12.4
2022-09-27T15:50:22.000Z,12.4
2022-09-27T15:51:38.420Z,12.4
2022-09-27T15:52:54.000Z,12.4
2022-09-27T15:54:10.707Z,12.4
2022-09-27T15:55:26.000Z,12.4
2022-09-27T15:56:42.000Z,12.3
2022-09-27T15:57:58.000Z,12.3
2022-09-27T15:59:15.306Z,12.3
2022-09-27T16:00:31.000Z,12.3
2022-09-27T16:01:47.000Z,12.3
2022-09-27T16:03:03.752Z,12.3
2022-09-27T16:04:19.888Z,12.2
2022-09-27T16:05:34.000Z,12.2
2022-09-27T16:06:51.196Z,12.2
2022-09-27T16:08:07.349Z,12.1
2022-09-27T16:09:23.000Z,12.1
2022-09-27T16:10:39.000Z,12.1
2022-09-27T16:11:55.000Z,12.1
2022-09-27T16:13:11.000Z,12.1
2022-09-27T16:14:27.000Z,12
2022-09-27T16:15:43.000Z,12
2022-09-27T16:17:00.000Z,12
2022-09-27T16:18:16.516Z,11.9
2022-09-27T16:19:32.000Z,11.9
2022-09-27T16:20:48.811Z,11.9
2022-09-27T16:22:03.000Z,11.9
2022-09-27T16:23:19.000Z,11.8
2022-09-27T16:24:36.000Z,11.8
2022-09-27T16:25:52.428Z,11.8
2022-09-27T16:27:08.000Z,11.7
2022-09-27T16:28:24.709Z,11.7
2022-09-27T16:29:40.849Z,11.7
2022-09-27T16:30:56.999Z,11.6
2022-09-27T16:32:12.000Z,11.6
2022-09-27T16:33:29.293Z,11.6
2022-09-27T16:34:45.000Z,11.5
2022-09-27T16:36:01.000Z,11.5
2022-09-27T16:37:17.000Z,11.4
2022-09-27T16:38:32.000Z,11.4
2022-09-27T16:39:48.000Z,11.4
2022-09-27T16:41:04.000Z,11.3
2022-09-27T16:42:21.329Z,11.3
2022-09-27T16:43:37.000Z,11.3
2022-09-27T16:44:53.631Z,11.2
2022-09-27T16:46:09.784Z,11.2
2022-09-27T16:47:25.938Z,11.1
2022-09-27T16:48:42.071Z,11.1
2022-09-27T16:49:57.000Z,11.1
2022-09-27T16:51:14.000Z,11
2022-09-27T16:52:30.511Z,11
2022-09-27T16:53:46.000Z,10.9
2022-09-27T16:55:01.000Z,10.9
2022-09-27T16:56:17.960Z,10.8
2022-09-27T16:57:33.000Z,10.8
2022-09-27T16:58:50.255Z,10.7
2022-09-27T17:00:06.000Z,10.7